createdAt,value
2022-09-14T00:02:43.302Z,1.83
2022-09-14T00:05:29.403Z,1.70
2022-09-14T00:08:15.422Z,1.80
2022-09-14T00:11:10.311Z,2.10
2022-09-14T00:13:57.937Z,2.30
2022-09-14T00:16:44.679Z,2.10
2022-09-14T00:19:30.579Z,1.80
2022-09-14T00:22:16.498Z,2.03
2022-09-14T00:25:02.274Z,2.05
2022-09-14T00:27:47.889Z,2.13
2022-09-14T00:30:33.609Z,1.88
2022-09-14T00:33:19.571Z,1.88
2022-09-14T00:36:11.362Z,1.40
2022-09-14T00:38:58.196Z,1.60
2022-09-14T00:41:46.519Z,1.88
2022-09-14T00:44:32.622Z,1.90
2022-09-14T00:47:18.413Z,1.70
2022-09-14T00:50:05.711Z,2.10
2022-09-14T00:52:51.574Z,2.00
2022-09-14T00:55:37.823Z,2.03
2022-09-14T00:58:23.879Z,1.60
2022-09-14T01:01:10.494Z,2.20
2022-09-14T01:03:56.522Z,1.52
2022-09-14T01:06:53.873Z,1.98
2022-09-14T01:09:46.713Z,1.73
2022-09-14T01:12:45.338Z,1.70
2022-09-14T01:15:43.139Z,1.45
2022-09-14T01:18:51.210Z,2.00
2022-09-14T01:21:42.093Z,1.85
2022-09-14T01:24:49.644Z,1.73
2022-09-14T01:27:41.809Z,1.88
2022-09-14T01:30:29.003Z,1.40
2022-09-14T01:33:18.370Z,1.80
2022-09-14T01:36:07.082Z,1.70
2022-09-14T01:38:54.070Z,1.60
2022-09-14T01:41:40.183Z,1.60
2022-09-14T01:44:30.214Z,2.30
2022-09-14T01:47:20.565Z,1.88
2022-09-14T01:50:14.734Z,1.85
2022-09-14T01:53:43.907Z,1.80
2022-09-14T01:56:37.564Z,1.60
2022-09-14T01:59:26.587Z,1.50
2022-09-14T02:02:26.334Z,1.60
2022-09-14T02:05:31.169Z,1.55
2022-09-14T02:08:17.532Z,1.73
2022-09-14T02:11:03.459Z,1.70
2022-09-14T02:13:49.268Z,1.50
2022-09-14T02:16:35.832Z,1.70
2022-09-14T02:19:23.961Z,1.63
2022-09-14T02:22:10.064Z,1.20
2022-09-14T02:24:56.842Z,1.35
2022-09-14T02:27:42.961Z,1.48
2022-09-14T02:30:38.105Z,1.50
2022-09-14T02:33:35.157Z,1.23
2022-09-14T02:36:38.912Z,1.50
2022-09-14T02:40:14.537Z,1.27
2022-09-14T02:43:21.417Z,1.35
2022-09-14T02:46:06.976Z,1.50
2022-09-14T02:49:02.062Z,1.58
2022-09-14T02:51:47.528Z,1.98
2022-09-14T02:54:46.341Z,1.38
2022-09-14T02:57:32.109Z,1.40
2022-09-14T03:00:17.884Z,1.42
2022-09-14T03:03:05.161Z,1.40
2022-09-14T03:05:51.313Z,1.73
2022-09-14T03:08:37.535Z,1.38
2022-09-14T03:11:23.296Z,1.75
2022-09-14T03:14:11.017Z,1.60
2022-09-14T03:16:56.644Z,1.70
2022-09-14T03:19:42.419Z,1.65
2022-09-14T03:22:28.154Z,1.48
2022-09-14T03:25:14.691Z,1.70
2022-09-14T03:28:00.593Z,1.50
2022-09-14T03:30:46.634Z,1.88
2022-09-14T03:33:32.431Z,1.90
2022-09-14T03:36:19.426Z,1.60
2022-09-14T03:39:05.425Z,1.33
2022-09-14T03:41:51.123Z,1.40
2022-09-14T03:44:36.861Z,1.50
2022-09-14T03:47:22.800Z,1.50
2022-09-14T03:50:10.895Z,1.50
2022-09-14T03:52:57.078Z,1.70
2022-09-14T03:55:43.190Z,1.52
2022-09-14T03:58:32.007Z,1.60
2022-09-14T04:01:21.057Z,1.88
2022-09-14T04:04:06.870Z,2.08
2022-09-14T04:06:52.529Z,1.58
2022-09-14T04:09:38.826Z,1.80
2022-09-14T04:12:25.239Z,2.63
2022-09-14T04:15:10.886Z,2.50
2022-09-14T04:17:56.883Z,6.32
2022-09-14T04:20:42.530Z,3.53
2022-09-14T04:23:28.539Z,2.40
2022-09-14T04:26:17.230Z,2.55
2022-09-14T04:29:03.633Z,2.60
2022-09-14T04:31:49.387Z,2.10
2022-09-14T04:34:35.709Z,2.40
2022-09-14T04:37:21.513Z,2.80
2022-09-14T04:40:07.738Z,2.33
2022-09-14T04:42:53.718Z,2.20
2022-09-14T04:45:39.312Z,2.22
2022-09-14T04:48:25.033Z,2.10
2022-09-14T04:51:16.703Z,2.20
2022-09-14T04:54:04.543Z,2.20
2022-09-14T04:56:50.430Z,1.90
2022-09-14T04:59:36.134Z,2.42
2022-09-14T05:02:22.059Z,2.47
2022-09-14T05:05:08.642Z,3.40
2022-09-14T05:07:54.284Z,3.50
2022-09-14T05:10:39.999Z,2.92
2022-09-14T05:13:26.037Z,3.00
2022-09-14T05:16:25.370Z,2.67
2022-09-14T05:19:14.507Z,2.17
2022-09-14T05:22:00.277Z,3.20
2022-09-14T05:24:45.893Z,3.30
2022-09-14T05:27:31.659Z,4.85
2022-09-14T05:30:17.507Z,4.35
2022-09-14T05:33:03.524Z,3.53
2022-09-14T05:35:50.399Z,4.63
2022-09-14T05:38:38.130Z,4.43
2022-09-14T05:41:23.971Z,4.32
2022-09-14T05:44:09.641Z,5.25
2022-09-14T05:46:55.448Z,4.13
2022-09-14T05:49:41.305Z,3.97
2022-09-14T05:52:29.589Z,4.55
2022-09-14T05:55:15.722Z,4.75
2022-09-14T05:58:01.775Z,4.70
2022-09-14T06:00:48.106Z,4.65
2022-09-14T06:03:34.100Z,4.57
2022-09-14T06:06:21.000Z,4.13
2022-09-14T06:09:06.983Z,6.35
2022-09-14T06:11:52.937Z,4.03
2022-09-14T06:14:38.481Z,4.25
2022-09-14T06:17:24.330Z,3.38
2022-09-14T06:20:10.693Z,4.38
2022-09-14T06:22:56.515Z,4.70
2022-09-14T06:25:44.738Z,4.20
2022-09-14T06:28:31.107Z,4.28
2022-09-14T06:31:18.449Z,4.78
2022-09-14T06:34:04.960Z,4.00
2022-09-14T06:36:50.811Z,5.32
2022-09-14T06:39:36.968Z,4.43
2022-09-14T06:42:22.712Z,4.55
2022-09-14T06:45:11.164Z,4.10
2022-09-14T06:47:57.690Z,5.60
2022-09-14T06:50:43.860Z,4.55
2022-09-14T06:53:29.625Z,4.35
2022-09-14T06:56:17.360Z,4.40
2022-09-14T06:59:04.595Z,3.90
2022-09-14T07:01:50.813Z,3.78
2022-09-14T07:04:37.058Z,3.85
2022-09-14T07:07:23.050Z,4.28
2022-09-14T07:10:08.808Z,4.65
2022-09-14T07:12:55.294Z,4.63
2022-09-14T07:15:40.819Z,10.27
2022-09-14T07:18:32.272Z,16.77
2022-09-14T07:21:19.458Z,12.65
2022-09-14T07:24:05.378Z,10.60
2022-09-14T07:26:51.200Z,6.40
2022-09-14T07:29:36.939Z,6.05
2022-09-14T07:32:22.801Z,5.93
2022-09-14T07:35:08.866Z,5.25
2022-09-14T07:37:55.000Z,5.30
2022-09-14T07:40:40.825Z,4.40
2022-09-14T07:43:26.778Z,4.38
2022-09-14T07:46:12.974Z,4.63
2022-09-14T07:49:02.376Z,4.80
2022-09-14T07:51:49.010Z,4.65
2022-09-14T07:54:35.616Z,3.50
2022-09-14T07:57:33.993Z,3.33
2022-09-14T08:00:27.364Z,4.60
2022-09-14T08:03:13.030Z,6.22
2022-09-14T08:06:03.132Z,5.47
2022-09-14T08:08:50.578Z,5.05
2022-09-14T08:11:37.163Z,5.28
2022-09-14T08:14:23.473Z,4.60
2022-09-14T08:17:10.726Z,4.50
2022-09-14T08:19:57.017Z,5.30
2022-09-14T08:22:44.814Z,5.78
2022-09-14T08:25:31.359Z,5.00
2022-09-14T08:28:17.321Z,5.47
2022-09-14T08:48:06.231Z,5.07
2022-09-14T09:04:14.026Z,4.88
2022-09-14T09:07:11.954Z,4.40
2022-09-14T09:09:58.272Z,4.55
2022-09-14T09:12:58.758Z,4.95
2022-09-14T09:15:53.327Z,5.28
2022-09-14T09:19:01.707Z,4.35
2022-09-14T09:21:48.359Z,4.63
2022-09-14T09:24:40.699Z,4.65
2022-09-14T09:27:27.870Z,4.40
2022-09-14T09:30:15.659Z,4.25
2022-09-14T09:33:02.108Z,4.43
2022-09-14T09:36:16.053Z,5.63
2022-09-14T09:39:05.468Z,5.18
2022-09-14T09:41:57.587Z,4.38
2022-09-14T09:45:06.742Z,4.53
2022-09-14T09:47:52.547Z,4.40
2022-09-14T09:50:59.794Z,4.57
2022-09-14T09:54:19.509Z,3.47
2022-09-14T09:57:31.903Z,5.50
2022-09-14T10:00:24.368Z,4.93
2022-09-14T10:03:28.302Z,4.25
2022-09-14T10:06:14.837Z,3.38
2022-09-14T10:09:00.855Z,3.03
2022-09-14T10:11:48.123Z,3.90
2022-09-14T10:14:35.961Z,3.50
2022-09-14T10:17:23.247Z,3.90
2022-09-14T10:20:22.507Z,3.53
2022-09-14T10:23:18.725Z,3.58
2022-09-14T10:26:10.872Z,2.95
2022-09-14T10:29:20.721Z,2.80
2022-09-14T10:32:17.757Z,3.17
2022-09-14T10:35:15.614Z,2.65
2022-09-14T10:38:20.239Z,2.97
2022-09-14T10:41:36.935Z,3.45
2022-09-14T10:44:44.067Z,3.50
2022-09-14T10:47:45.395Z,3.40
2022-09-14T10:50:41.293Z,4.75
2022-09-14T10:53:57.590Z,4.30
2022-09-14T10:57:14.211Z,3.20
2022-09-14T11:00:13.170Z,2.85
2022-09-14T11:03:09.266Z,3.70
2022-09-14T11:06:02.748Z,2.55
2022-09-14T11:09:19.845Z,1.85
2022-09-14T11:12:38.398Z,4.30
2022-09-14T11:15:31.804Z,2.90
2022-09-14T11:19:02.836Z,4.22
2022-09-14T11:21:50.673Z,2.88
2022-09-14T11:25:13.016Z,2.95
2022-09-14T11:28:01.145Z,4.78
2022-09-14T11:31:31.680Z,2.80
2022-09-14T11:34:48.143Z,4.88
2022-09-14T11:37:40.690Z,4.78
2022-09-14T11:40:46.456Z,3.30
2022-09-14T11:43:56.463Z,2.10
2022-09-14T11:47:08.878Z,2.00
2022-09-14T11:50:16.849Z,1.90
2022-09-14T11:53:09.620Z,2.30
2022-09-14T11:55:55.812Z,3.30
2022-09-14T11:58:41.522Z,2.72
2022-09-14T12:01:32.230Z,3.25
2022-09-14T12:04:19.511Z,3.00
2022-09-14T12:07:05.672Z,3.17
2022-09-14T12:09:53.369Z,2.65
2022-09-14T12:12:40.697Z,2.10
2022-09-14T12:15:26.545Z,2.53
2022-09-14T12:18:13.412Z,1.80
2022-09-14T12:21:18.084Z,1.40
2022-09-14T12:24:14.669Z,2.25
2022-09-14T12:27:15.508Z,2.80
2022-09-14T12:30:01.223Z,4.40
2022-09-14T12:32:47.348Z,3.40
2022-09-14T12:35:45.914Z,3.40
2022-09-14T12:38:31.883Z,5.47
2022-09-14T12:41:20.656Z,8.80
2022-09-14T12:44:33.180Z,4.20
2022-09-14T12:47:25.484Z,2.60
2022-09-14T12:50:19.874Z,3.40
2022-09-14T12:53:35.339Z,3.13
2022-09-14T12:56:31.313Z,4.28
2022-09-14T12:59:38.896Z,7.30
2022-09-14T13:02:48.493Z,3.10
2022-09-14T13:05:34.740Z,3.67
2022-09-14T13:08:23.737Z,3.80
2022-09-14T13:11:10.192Z,2.97
2022-09-14T13:13:56.484Z,5.40
2022-09-14T13:16:44.641Z,5.72
2022-09-14T13:19:32.776Z,11.35
2022-09-14T13:22:24.421Z,10.13
2022-09-14T13:25:27.130Z,11.63
2022-09-14T13:28:18.144Z,12.38
2022-09-14T13:31:05.431Z,7.15
2022-09-14T13:33:52.872Z,8.65
2022-09-14T13:36:42.442Z,8.43
2022-09-14T13:39:34.514Z,4.60
2022-09-14T13:42:21.879Z,4.82
2022-09-14T13:45:08.683Z,4.15
2022-09-14T13:47:55.070Z,3.72
2022-09-14T13:50:44.090Z,4.22
2022-09-14T13:53:42.087Z,4.30
2022-09-14T13:56:33.985Z,7.88
2022-09-14T13:59:21.807Z,10.68
2022-09-14T14:02:16.398Z,4.00
2022-09-14T14:05:04.098Z,10.13
2022-09-14T14:07:50.081Z,6.25
2022-09-14T14:11:41.247Z,5.13
2022-09-14T14:14:31.313Z,5.53
2022-09-14T14:17:37.003Z,4.40
2022-09-14T14:20:36.753Z,3.83
2022-09-14T14:23:23.176Z,4.60
2022-09-14T14:26:14.601Z,4.38
2022-09-14T14:29:09.771Z,4.00
2022-09-14T14:31:56.613Z,4.43
2022-09-14T14:34:42.875Z,5.50
2022-09-14T14:37:28.734Z,5.45
2022-09-14T14:40:15.892Z,4.90
2022-09-14T14:43:05.562Z,5.43
2022-09-14T14:45:57.749Z,6.95
2022-09-14T14:48:43.820Z,10.45
2022-09-14T14:51:30.496Z,5.13
2022-09-14T14:54:18.837Z,5.72
2022-09-14T14:57:05.288Z,5.65
2022-09-14T14:59:52.858Z,5.28
2022-09-14T15:02:38.898Z,3.38
2022-09-14T15:05:25.677Z,5.55
2022-09-14T15:08:16.248Z,4.22
2022-09-14T15:11:02.341Z,6.32
2022-09-14T15:13:48.748Z,5.93
2022-09-14T15:16:35.148Z,6.07
2022-09-14T15:19:21.438Z,5.57
2022-09-14T15:22:07.456Z,4.97
2022-09-14T15:24:53.371Z,4.97
2022-09-14T15:27:40.412Z,4.90
2022-09-14T15:30:26.644Z,5.18
2022-09-14T15:33:12.697Z,4.80
2022-09-14T15:35:58.800Z,5.10
2022-09-14T15:38:44.575Z,5.35
2022-09-14T15:41:30.400Z,4.65
2022-09-14T15:44:16.441Z,4.45
2022-09-14T15:47:02.184Z,5.00
2022-09-14T15:49:51.837Z,4.82
2022-09-14T15:52:39.040Z,5.05
2022-09-14T15:55:24.723Z,5.32
2022-09-14T15:58:11.447Z,5.70
2022-09-14T16:00:57.721Z,5.13
2022-09-14T16:03:44.145Z,5.10
2022-09-14T16:06:30.710Z,4.80
2022-09-14T16:09:18.279Z,5.22
2022-09-14T16:12:04.647Z,5.35
2022-09-14T16:14:50.507Z,4.68
2022-09-14T16:17:36.525Z,6.65
2022-09-14T16:20:22.864Z,6.57
2022-09-14T16:23:09.143Z,6.30
2022-09-14T16:25:55.152Z,6.47
2022-09-14T16:28:42.483Z,5.25
2022-09-14T16:31:34.674Z,4.57
2022-09-14T16:34:27.432Z,5.57
2022-09-14T16:37:13.839Z,6.80
2022-09-14T16:39:59.963Z,7.88
2022-09-14T16:42:48.095Z,9.55
2022-09-14T16:45:33.938Z,9.32
2022-09-14T16:48:19.810Z,9.23
2022-09-14T16:51:06.633Z,9.13
2022-09-14T16:53:52.922Z,7.55
2022-09-14T16:56:39.095Z,8.20
2022-09-14T16:59:25.611Z,9.00
2022-09-14T17:02:11.873Z,9.20
2022-09-14T17:04:58.304Z,14.48
2022-09-14T17:07:44.172Z,14.93
2022-09-14T17:10:34.362Z,15.55
2022-09-14T17:13:26.035Z,14.73
2022-09-14T17:16:19.893Z,15.40
2022-09-14T17:19:06.149Z,14.35
2022-09-14T17:21:52.245Z,14.82
2022-09-14T17:24:38.618Z,14.93
2022-09-14T17:27:24.334Z,14.73
2022-09-14T17:30:10.814Z,16.08
2022-09-14T17:32:56.669Z,13.65
2022-09-14T17:35:58.609Z,11.40
2022-09-14T17:38:44.990Z,10.50
2022-09-14T17:41:33.186Z,11.30
2022-09-14T17:44:20.052Z,10.75
2022-09-14T17:47:06.165Z,11.05
2022-09-14T17:49:52.278Z,11.85
2022-09-14T17:52:38.059Z,13.25
2022-09-14T17:55:24.755Z,13.68
2022-09-14T17:58:10.924Z,14.73
2022-09-14T18:01:30.748Z,14.38
2022-09-14T18:04:17.023Z,13.43
2022-09-14T18:07:04.778Z,12.32
2022-09-14T18:09:50.649Z,9.63
2022-09-14T18:12:36.841Z,9.18
2022-09-14T18:15:22.793Z,6.90
2022-09-14T18:18:08.610Z,6.78
2022-09-14T18:20:54.239Z,6.82
2022-09-14T18:23:40.091Z,6.10
2022-09-14T18:26:26.741Z,6.43
2022-09-14T18:29:17.754Z,11.02
2022-09-14T18:32:03.674Z,10.02
2022-09-14T18:34:49.412Z,11.10
2022-09-14T18:37:35.256Z,19.02
2022-09-14T18:40:21.736Z,16.30
2022-09-14T18:43:08.606Z,12.38
2022-09-14T18:45:54.827Z,9.80
2022-09-14T18:48:43.671Z,7.68
2022-09-14T18:51:30.621Z,5.65
2022-09-14T18:54:16.929Z,5.05
2022-09-14T18:57:02.801Z,6.18
2022-09-14T18:59:49.507Z,8.10
2022-09-14T19:02:36.558Z,6.00
2022-09-14T19:05:23.960Z,5.85
2022-09-14T19:08:10.213Z,10.73
2022-09-14T19:10:56.169Z,10.60
2022-09-14T19:13:42.152Z,9.07
2022-09-14T19:16:29.238Z,10.65
2022-09-14T19:19:15.638Z,10.57
2022-09-14T19:22:01.617Z,9.40
2022-09-14T19:24:47.418Z,7.88
2022-09-14T19:27:33.580Z,7.30
2022-09-14T19:30:19.398Z,5.65
2022-09-14T19:33:05.278Z,6.45
2022-09-14T19:35:51.273Z,6.82
2022-09-14T19:38:37.551Z,8.65
2022-09-14T19:41:23.664Z,8.75
2022-09-14T19:44:10.952Z,8.98
2022-09-14T19:46:56.634Z,9.23
2022-09-14T19:49:42.473Z,8.98
2022-09-14T19:52:28.083Z,7.65
2022-09-14T19:55:13.690Z,7.85
2022-09-14T19:57:59.631Z,6.45
2022-09-14T20:00:45.702Z,7.00
2022-09-14T20:03:34.159Z,5.78
2022-09-14T20:06:26.700Z,5.90
2022-09-14T20:09:21.220Z,5.90
2022-09-14T20:12:06.916Z,8.65
2022-09-14T20:14:52.838Z,7.55
2022-09-14T20:17:38.610Z,8.07
2022-09-14T20:20:24.314Z,6.78
2022-09-14T20:23:10.064Z,7.05
2022-09-14T20:25:56.994Z,7.55
2022-09-14T20:28:43.541Z,7.85
2022-09-14T20:31:30.766Z,7.57
2022-09-14T20:34:20.619Z,7.82
2022-09-14T20:37:06.747Z,8.38
2022-09-14T20:39:52.825Z,8.65
2022-09-14T20:42:38.546Z,8.02
2022-09-14T20:45:24.289Z,8.75
2022-09-14T20:48:09.885Z,8.18
2022-09-14T20:50:56.686Z,7.68
2022-09-14T20:53:43.186Z,7.00
2022-09-14T20:56:31.664Z,6.20
2022-09-14T20:59:27.575Z,6.50
2022-09-14T21:02:13.383Z,5.90
2022-09-14T21:05:00.074Z,6.25
2022-09-14T21:08:01.646Z,6.75
2022-09-14T21:10:47.632Z,6.70
2022-09-14T21:13:34.398Z,7.22
2022-09-14T21:16:25.203Z,6.90
2022-09-14T21:19:27.174Z,6.68
2022-09-14T21:22:13.138Z,8.95
2022-09-14T21:24:58.836Z,6.22
2022-09-14T21:27:44.498Z,6.57
2022-09-14T21:30:31.432Z,7.03
2022-09-14T21:33:17.698Z,6.00
2022-09-14T21:36:06.224Z,6.40
2022-09-14T21:38:56.996Z,5.20
2022-09-14T21:41:44.850Z,5.10
2022-09-14T21:44:32.158Z,5.82
2022-09-14T21:47:18.208Z,4.78
2022-09-14T21:50:04.845Z,5.00
2022-09-14T21:52:50.726Z,5.35
2022-09-14T21:55:40.210Z,5.45
2022-09-14T21:58:26.207Z,6.35
2022-09-14T22:01:12.233Z,7.25
2022-09-14T22:04:03.785Z,6.97
2022-09-14T22:06:51.475Z,8.40
2022-09-14T22:09:37.228Z,7.10
2022-09-14T22:12:22.955Z,6.22
2022-09-14T22:15:09.241Z,5.80
2022-09-14T22:17:58.351Z,5.20
2022-09-14T22:20:46.180Z,4.60
2022-09-14T22:23:32.560Z,3.75
2022-09-14T22:26:20.192Z,4.30
2022-09-14T22:29:07.668Z,4.47
2022-09-14T22:31:53.459Z,4.93
2022-09-14T22:34:41.581Z,5.28
2022-09-14T22:37:27.743Z,4.68
2022-09-14T22:40:13.490Z,4.50
2022-09-14T22:42:59.105Z,6.80
2022-09-14T22:45:44.839Z,6.70
2022-09-14T22:48:31.282Z,4.63
2022-09-14T22:51:23.151Z,4.22
2022-09-14T22:54:08.856Z,4.75
2022-09-14T22:56:54.466Z,5.30
2022-09-14T22:59:39.954Z,4.15
2022-09-14T23:02:25.773Z,3.88
2022-09-14T23:05:11.746Z,5.75
2022-09-14T23:07:57.537Z,4.20
2022-09-14T23:10:43.152Z,3.72
2022-09-14T23:13:28.733Z,4.00
2022-09-14T23:16:19.865Z,4.32
2022-09-14T23:19:09.750Z,4.10
2022-09-14T23:21:55.819Z,4.03
2022-09-14T23:24:41.926Z,4.55
2022-09-14T23:27:27.881Z,4.30
2022-09-14T23:30:13.915Z,4.20
2022-09-14T23:33:00.293Z,4.05
2022-09-14T23:35:49.503Z,3.90
2022-09-14T23:38:35.459Z,2.97
2022-09-14T23:41:22.895Z,2.90
2022-09-14T23:44:12.911Z,2.88
2022-09-14T23:46:58.703Z,2.75
2022-09-14T23:49:44.461Z,3.38
2022-09-14T23:52:30.194Z,3.03
2022-09-14T23:55:16.130Z,3.10
2022-09-14T23:58:01.828Z,3.67
